Time;durP1;ratioP1;P1;durP2;ratioP2;P2;SDS_P1;SDS_P2;PMS_P1;PMS_P2;Temp;Humidity;BMP_temperature;BMP_pressure;BME280_temperature;BME280_humidity;BME280_pressure;Samples;Min_cycle;Max_cycle;Signal;HPM_P1;HPM_P2
2021/10/18 00:00:53;;;;;;;25.05;14.88;;;11.10;99.90;;;;;;5049213;28;25063;-68
2021/10/18 00:03:21;;;;;;;24.63;13.50;;;11.10;99.90;;;;;;5041948;28;25068;-68
2021/10/18 00:05:47;;;;;;;21.38;14.73;;;11.10;99.90;;;;;;5045397;28;25072;-69
2021/10/18 00:08:13;;;;;;;20.00;14.57;;;11.10;99.90;;;;;;5046868;28;25064;-70
2021/10/18 00:10:39;;;;;;;20.85;13.85;;;11.00;99.90;;;;;;5043685;28;25074;-69
2021/10/18 00:13:06;;;;;;;19.10;13.70;;;11.00;99.90;;;;;;5045234;28;25067;-69
2021/10/18 00:15:31;;;;;;;25.75;15.13;;;10.90;99.90;;;;;;5055117;28;25176;-69
2021/10/18 00:17:59;;;;;;;20.40;13.10;;;10.90;99.90;;;;;;5026139;28;25045;-70
2021/10/18 00:20:26;;;;;;;22.42;13.65;;;11.00;99.90;;;;;;5050213;28;25045;-68
2021/10/18 00:22:52;;;;;;;21.23;12.80;;;11.10;99.90;;;;;;5048850;28;25131;-68
2021/10/18 00:25:18;;;;;;;20.65;13.35;;;11.10;99.90;;;;;;5044540;28;25104;-71
2021/10/18 00:27:45;;;;;;;18.17;12.98;;;11.20;99.90;;;;;;5054409;28;25066;-71
2021/10/18 00:30:11;;;;;;;25.88;14.60;;;11.20;99.90;;;;;;5050838;28;25055;-68
2021/10/18 00:32:37;;;;;;;25.90;14.60;;;11.10;99.90;;;;;;5049517;28;25083;-70
2021/10/18 00:35:03;;;;;;;21.42;13.60;;;11.00;99.90;;;;;;5038359;28;25100;-71
2021/10/18 00:37:28;;;;;;;19.30;13.63;;;10.90;99.90;;;;;;5043316;28;25072;-71
2021/10/18 00:39:54;;;;;;;19.63;13.52;;;10.90;99.90;;;;;;5037660;28;25062;-69
2021/10/18 00:42:20;;;;;;;22.08;14.55;;;10.90;99.90;;;;;;5041602;28;25067;-68
2021/10/18 00:44:49;;;;;;;22.77;14.00;;;11.00;99.90;;;;;;5044592;28;25043;-67
2021/10/18 00:47:20;;;;;;;20.85;14.90;;;10.90;99.90;;;;;;5023286;28;25069;-69
2021/10/18 00:49:46;;;;;;;24.13;14.55;;;10.90;99.90;;;;;;5037727;28;25072;-70
2021/10/18 00:52:13;;;;;;;19.67;13.57;;;10.90;99.90;;;;;;5041109;28;25097;-67
2021/10/18 00:54:40;;;;;;;24.80;14.48;;;10.90;99.90;;;;;;5050715;28;25062;-69
2021/10/18 00:57:06;;;;;;;21.92;15.27;;;10.80;99.90;;;;;;5036984;28;25060;-68
2021/10/18 00:59:34;;;;;;;18.67;13.45;;;10.80;99.90;;;;;;5023155;28;25079;-71
2021/10/18 01:02:01;;;;;;;26.92;15.48;;;10.80;99.90;;;;;;5043001;28;25162;-68
2021/10/18 01:04:26;;;;;;;20.75;13.90;;;10.80;99.90;;;;;;5043982;28;25104;-68
2021/10/18 01:06:53;;;;;;;17.65;14.93;;;10.80;99.90;;;;;;5039625;28;25107;-69
2021/10/18 01:09:19;;;;;;;19.13;13.77;;;10.80;99.90;;;;;;5040225;28;25090;-69
2021/10/18 01:11:45;;;;;;;19.63;14.27;;;10.80;99.90;;;;;;5029270;28;25167;-67
2021/10/18 01:14:11;;;;;;;25.00;14.43;;;10.90;99.90;;;;;;5039990;28;25150;-70
2021/10/18 01:16:37;;;;;;;21.38;14.75;;;10.90;99.90;;;;;;5039851;28;25043;-69
2021/10/18 01:19:10;;;;;;;21.50;14.88;;;10.90;99.90;;;;;;5038513;28;25068;-68
2021/10/18 01:21:36;;;;;;;24.02;14.32;;;11.00;99.90;;;;;;5038741;28;25094;-68
2021/10/18 01:24:02;;;;;;;25.38;15.65;;;10.90;99.90;;;;;;5043580;28;25103;-66
2021/10/18 01:26:28;;;;;;;22.83;15.93;;;11.00;99.90;;;;;;5045894;28;25150;-69
2021/10/18 01:28:53;;;;;;;27.73;15.68;;;10.90;99.90;;;;;;5050343;28;25151;-68
2021/10/18 01:31:19;;;;;;;21.10;14.70;;;10.90;99.90;;;;;;5034555;28;25107;-69
2021/10/18 01:33:45;;;;;;;26.63;16.20;;;11.00;99.90;;;;;;5057081;28;25120;-68
2021/10/18 01:36:11;;;;;;;25.55;16.60;;;11.10;99.90;;;;;;5049062;28;25136;-69
2021/10/18 01:38:37;;;;;;;21.52;15.80;;;11.10;99.90;;;;;;5054795;28;25145;-69
2021/10/18 01:41:03;;;;;;;28.52;16.50;;;11.10;99.90;;;;;;5047933;28;25431;-69
2021/10/18 01:43:28;;;;;;;28.92;17.10;;;11.00;99.90;;;;;;5032077;28;25088;-69
2021/10/18 01:45:54;;;;;;;27.27;15.70;;;11.10;99.90;;;;;;5048476;28;25053;-69
2021/10/18 01:48:20;;;;;;;24.60;15.40;;;11.20;99.90;;;;;;5047209;28;25151;-69
2021/10/18 01:50:46;;;;;;;23.00;16.27;;;11.20;99.90;;;;;;5029396;28;25055;-69
2021/10/18 01:53:12;;;;;;;23.52;14.90;;;11.10;99.90;;;;;;5050240;28;25130;-71
2021/10/18 01:55:37;;;;;;;21.10;15.10;;;11.10;99.90;;;;;;5045582;28;25106;-71
2021/10/18 01:58:03;;;;;;;29.38;16.40;;;11.00;99.90;;;;;;5046402;28;25060;-69
2021/10/18 02:00:29;;;;;;;26.05;15.15;;;11.00;99.90;;;;;;5045826;28;25063;-71
2021/10/18 02:02:54;;;;;;;22.73;16.33;;;10.90;99.90;;;;;;5047532;28;25085;-69
2021/10/18 02:05:20;;;;;;;23.00;14.77;;;10.80;99.90;;;;;;5047012;28;25100;-70
2021/10/18 02:07:46;;;;;;;24.83;17.10;;;10.80;99.90;;;;;;5025306;28;25078;-71
2021/10/18 02:10:12;;;;;;;26.80;15.48;;;10.70;99.90;;;;;;5044301;28;25121;-70
2021/10/18 02:12:38;;;;;;;23.05;15.98;;;10.80;99.90;;;;;;5043319;28;25160;-69
2021/10/18 02:15:06;;;;;;;23.17;16.40;;;10.70;99.90;;;;;;5044120;28;25133;-69
2021/10/18 02:17:32;;;;;;;21.67;16.52;;;10.50;99.90;;;;;;5030965;28;25136;-68
2021/10/18 02:19:57;;;;;;;24.40;15.30;;;10.50;99.90;;;;;;5046487;28;25112;-71
2021/10/18 02:22:23;;;;;;;23.13;15.95;;;10.50;99.90;;;;;;5043350;28;25066;-70
2021/10/18 02:24:49;;;;;;;20.33;15.48;;;10.50;99.90;;;;;;5051820;28;25080;-69
2021/10/18 02:27:14;;;;;;;24.15;15.60;;;10.50;99.90;;;;;;5043242;28;25057;-70
2021/10/18 02:29:41;;;;;;;20.88;15.15;;;10.50;99.90;;;;;;5048284;28;25143;-70
2021/10/18 02:32:06;;;;;;;23.30;16.08;;;10.50;99.90;;;;;;5047178;28;25139;-67
2021/10/18 02:34:32;;;;;;;24.27;16.70;;;10.40;99.90;;;;;;5032269;28;25062;-69
2021/10/18 02:36:58;;;;;;;23.98;15.38;;;10.40;99.90;;;;;;5049141;28;25085;-70
2021/10/18 02:39:24;;;;;;;27.55;16.40;;;10.40;99.90;;;;;;5048490;28;25082;-70
2021/10/18 02:41:49;;;;;;;23.10;17.05;;;10.30;99.90;;;;;;5072430;28;25057;-70
2021/10/18 02:44:15;;;;;;;27.40;16.30;;;10.30;99.90;;;;;;5062087;28;25077;-69
2021/10/18 02:46:41;;;;;;;23.15;16.20;;;10.20;99.90;;;;;;5066701;28;25046;-68
2021/10/18 02:49:06;;;;;;;22.58;16.15;;;10.10;99.90;;;;;;5060832;28;25126;-68
2021/10/18 02:51:32;;;;;;;24.88;17.35;;;10.20;99.90;;;;;;5028684;28;25171;-67
2021/10/18 02:53:58;;;;;;;20.55;16.02;;;10.20;99.90;;;;;;5048191;28;25151;-70
2021/10/18 02:56:23;;;;;;;25.48;17.90;;;10.20;99.90;;;;;;5027878;28;25123;-71
2021/10/18 02:58:49;;;;;;;23.88;16.60;;;10.30;99.90;;;;;;5045100;28;25146;-68
2021/10/18 03:01:15;;;;;;;23.40;16.70;;;10.30;99.90;;;;;;5043605;28;25103;-69
2021/10/18 03:03:40;;;;;;;22.27;14.45;;;10.30;99.90;;;;;;5049126;28;25055;-67
2021/10/18 03:06:06;;;;;;;25.58;17.23;;;10.30;99.90;;;;;;5047100;28;25127;-71
2021/10/18 03:08:31;;;;;;;24.63;17.17;;;10.20;99.90;;;;;;5046105;28;25069;-70
2021/10/18 03:10:57;;;;;;;25.75;17.38;;;10.20;99.90;;;;;;5022095;28;25059;-71
2021/10/18 03:13:23;;;;;;;22.75;16.70;;;10.20;99.90;;;;;;5029675;28;25069;-69
2021/10/18 03:15:48;;;;;;;22.58;16.35;;;10.20;99.90;;;;;;5027569;28;25050;-69
2021/10/18 03:18:14;;;;;;;29.73;17.30;;;10.30;99.90;;;;;;5020330;28;25100;-70
2021/10/18 03:20:40;;;;;;;26.65;17.75;;;10.20;99.90;;;;;;5040119;28;25097;-70
2021/10/18 03:23:05;;;;;;;23.95;17.63;;;10.00;99.90;;;;;;5048873;28;25130;-70
2021/10/18 03:25:34;;;;;;;22.63;16.95;;;9.90;99.90;;;;;;5052437;28;25063;-70
2021/10/18 03:28:01;;;;;;;21.88;17.70;;;9.90;99.90;;;;;;5045922;28;25134;-70
2021/10/18 03:30:27;;;;;;;25.40;17.67;;;9.90;99.90;;;;;;5055209;28;25114;-68
2021/10/18 03:32:53;;;;;;;20.55;16.33;;;9.80;99.90;;;;;;5051079;28;25069;-70
2021/10/18 03:35:18;;;;;;;26.10;17.77;;;9.80;99.90;;;;;;5027897;28;25129;-71
2021/10/18 03:37:44;;;;;;;26.55;17.27;;;9.80;99.90;;;;;;5051431;28;25060;-70
2021/10/18 03:40:12;;;;;;;23.13;17.35;;;9.70;99.90;;;;;;5048288;28;25082;-69
2021/10/18 03:42:38;;;;;;;21.63;18.00;;;9.70;99.90;;;;;;5045216;28;25143;-70
2021/10/18 03:45:06;;;;;;;25.80;17.15;;;9.70;99.90;;;;;;5023432;28;25136;-69
2021/10/18 03:47:32;;;;;;;26.50;19.77;;;9.50;99.90;;;;;;5049437;28;25156;-67
2021/10/18 03:49:57;;;;;;;27.85;19.25;;;9.50;99.90;;;;;;5053962;28;25088;-70
2021/10/18 03:52:23;;;;;;;23.95;17.95;;;9.50;99.90;;;;;;5052914;28;25055;-71
2021/10/18 03:54:48;;;;;;;22.73;18.05;;;9.50;99.90;;;;;;5051799;28;25064;-68
2021/10/18 03:57:15;;;;;;;26.58;18.73;;;9.60;99.90;;;;;;5050629;28;25068;-70
2021/10/18 03:59:40;;;;;;;25.60;18.80;;;9.60;99.90;;;;;;5052512;28;25058;-69
2021/10/18 04:02:06;;;;;;;27.70;19.02;;;9.60;99.90;;;;;;5050648;28;25108;-69
2021/10/18 04:04:32;;;;;;;26.25;19.23;;;9.60;99.90;;;;;;5047336;28;25055;-70
2021/10/18 04:06:59;;;;;;;26.80;19.70;;;9.70;99.90;;;;;;5027649;28;25052;-69
2021/10/18 04:09:25;;;;;;;27.58;18.77;;;9.70;99.90;;;;;;5026652;28;25067;-72
2021/10/18 04:11:50;;;;;;;27.92;20.50;;;9.60;99.90;;;;;;5047080;28;25058;-70
2021/10/18 04:14:16;;;;;;;25.27;19.02;;;9.60;99.90;;;;;;5049014;28;25112;-68
2021/10/18 04:16:41;;;;;;;26.27;18.23;;;9.60;99.90;;;;;;5042628;28;25157;-71
2021/10/18 04:19:07;;;;;;;24.50;19.17;;;9.60;99.90;;;;;;5028920;28;25123;-69
2021/10/18 04:21:33;;;;;;;28.10;18.55;;;9.70;99.90;;;;;;5045388;28;25115;-68
2021/10/18 04:23:58;;;;;;;26.80;18.70;;;9.70;99.90;;;;;;5041214;28;25167;-68
2021/10/18 04:26:24;;;;;;;31.67;19.95;;;9.70;99.90;;;;;;5048154;28;25075;-69
2021/10/18 04:28:51;;;;;;;25.75;19.45;;;9.80;99.90;;;;;;5047790;28;25115;-69
2021/10/18 04:31:16;;;;;;;29.20;18.95;;;9.70;99.90;;;;;;5044600;28;25058;-67
2021/10/18 04:33:42;;;;;;;31.08;19.50;;;9.70;99.90;;;;;;5045210;28;25124;-68
2021/10/18 04:36:08;;;;;;;27.77;18.27;;;9.70;99.90;;;;;;5052057;28;25058;-66
2021/10/18 04:38:33;;;;;;;27.27;16.63;;;9.60;99.90;;;;;;5045848;28;25080;-69
2021/10/18 04:40:59;;;;;;;24.45;18.83;;;9.60;99.90;;;;;;5047118;28;25065;-69
2021/10/18 04:43:25;;;;;;;29.50;19.52;;;9.60;99.90;;;;;;5044033;28;25053;-69
2021/10/18 04:45:50;;;;;;;35.10;20.23;;;9.50;99.90;;;;;;5024808;28;25070;-71
2021/10/18 04:48:16;;;;;;;28.25;19.15;;;9.50;99.90;;;;;;5049323;28;25064;-70
2021/10/18 04:50:41;;;;;;;29.00;19.27;;;9.60;99.90;;;;;;5028156;28;25077;-70
2021/10/18 04:53:07;;;;;;;33.05;19.80;;;9.70;99.90;;;;;;5045331;28;25140;-68
2021/10/18 04:55:33;;;;;;;29.98;19.50;;;9.70;99.90;;;;;;5045965;28;25075;-69
2021/10/18 04:58:02;;;;;;;33.97;20.85;;;9.60;99.90;;;;;;5038918;28;25063;-71
2021/10/18 05:00:33;;;;;;;32.28;20.10;;;9.60;99.90;;;;;;5047693;28;25071;-69
2021/10/18 05:02:58;;;;;;;34.85;20.73;;;9.50;99.90;;;;;;5029320;28;25146;-68
2021/10/18 05:05:24;;;;;;;32.50;20.33;;;9.60;99.90;;;;;;5048625;28;25121;-68
2021/10/18 05:08:01;;;;;;;27.95;19.33;;;9.50;99.90;;;;;;5047416;28;25089;-69
2021/10/18 05:10:27;;;;;;;33.45;20.67;;;9.60;99.90;;;;;;5031947;28;25056;-69
2021/10/18 05:12:54;;;;;;;34.35;20.73;;;9.40;99.90;;;;;;5046534;28;25061;-68
2021/10/18 05:15:20;;;;;;;28.77;20.90;;;9.40;99.90;;;;;;5027801;28;25067;-69
2021/10/18 05:17:46;;;;;;;29.30;19.42;;;9.50;99.90;;;;;;5042164;28;25130;-67
2021/10/18 05:20:16;;;;;;;30.48;19.20;;;9.50;99.90;;;;;;5048759;28;25065;-68
2021/10/18 05:22:42;;;;;;;33.65;21.75;;;9.50;99.90;;;;;;5037853;28;25140;-69
2021/10/18 05:25:08;;;;;;;29.83;21.75;;;9.50;99.90;;;;;;5055585;28;25126;-69
2021/10/18 05:27:37;;;;;;;30.45;20.73;;;9.50;99.90;;;;;;5037635;28;25143;-68
2021/10/18 05:30:04;;;;;;;29.08;21.73;;;9.50;99.90;;;;;;5055946;28;25124;-68
2021/10/18 05:32:29;;;;;;;31.30;21.17;;;9.40;99.90;;;;;;5029396;28;25132;-71
2021/10/18 05:34:56;;;;;;;27.92;20.65;;;9.40;99.90;;;;;;5053651;28;25073;-69
2021/10/18 05:37:22;;;;;;;30.77;21.20;;;9.50;99.90;;;;;;5058332;28;25115;-69
2021/10/18 05:39:48;;;;;;;35.35;23.13;;;9.50;99.90;;;;;;5050519;28;25093;-68
2021/10/18 05:42:13;;;;;;;30.38;21.75;;;9.50;99.90;;;;;;5027617;28;25060;-70
2021/10/18 05:44:39;;;;;;;34.55;21.73;;;9.50;99.90;;;;;;5054166;28;25061;-70
2021/10/18 05:47:04;;;;;;;28.98;21.40;;;9.50;99.90;;;;;;5055476;28;25061;-69
2021/10/18 05:49:31;;;;;;;35.15;23.15;;;9.30;99.90;;;;;;5055421;28;25123;-68
2021/10/18 05:51:57;;;;;;;32.28;21.55;;;9.30;99.90;;;;;;5018902;28;25046;-68
2021/10/18 05:54:22;;;;;;;31.77;22.45;;;9.30;99.90;;;;;;5056570;28;25069;-69
2021/10/18 05:56:52;;;;;;;32.75;23.60;;;9.30;99.90;;;;;;5040073;28;25079;-70
2021/10/18 05:59:18;;;;;;;37.30;23.88;;;9.30;99.90;;;;;;5049759;28;25095;-68
2021/10/18 06:01:43;;;;;;;33.67;23.58;;;9.30;99.90;;;;;;5050149;28;25010;-69
2021/10/18 06:04:09;;;;;;;32.47;22.30;;;9.30;99.90;;;;;;5049896;28;25071;-70
2021/10/18 06:06:36;;;;;;;45.60;25.05;;;9.40;99.90;;;;;;5050009;28;25046;-68
2021/10/18 06:09:03;;;;;;;40.72;24.48;;;9.30;99.90;;;;;;5050583;28;25065;-69
2021/10/18 06:11:29;;;;;;;31.83;23.13;;;9.40;99.90;;;;;;5027477;28;25051;-70
2021/10/18 06:13:54;;;;;;;36.08;23.73;;;9.30;99.90;;;;;;5033350;28;25082;-70
2021/10/18 06:16:21;;;;;;;40.08;24.48;;;9.30;99.90;;;;;;5045297;28;25114;-69
2021/10/18 06:18:46;;;;;;;32.80;23.83;;;9.30;99.90;;;;;;5032104;28;25075;-69
2021/10/18 06:21:12;;;;;;;37.28;24.88;;;9.20;99.90;;;;;;5050678;28;25075;-68
2021/10/18 06:23:38;;;;;;;41.22;24.58;;;9.20;99.90;;;;;;5057713;28;25062;-69
2021/10/18 06:26:03;;;;;;;35.65;25.15;;;9.20;99.90;;;;;;5051271;28;25109;-69
2021/10/18 06:28:29;;;;;;;37.90;25.17;;;9.20;99.90;;;;;;5054809;28;25063;-69
2021/10/18 06:30:55;;;;;;;37.75;24.75;;;9.10;99.90;;;;;;5052948;28;25079;-70
2021/10/18 06:33:21;;;;;;;39.42;24.08;;;9.10;99.90;;;;;;5050703;28;25112;-70
2021/10/18 06:35:47;;;;;;;40.72;25.58;;;9.00;99.90;;;;;;5048986;28;25063;-69
2021/10/18 06:38:19;;;;;;;39.75;25.90;;;9.10;99.90;;;;;;5050024;28;25163;-69
2021/10/18 06:40:45;;;;;;;34.28;23.63;;;9.10;99.90;;;;;;5034401;28;25070;-70
2021/10/18 06:43:11;;;;;;;40.28;25.13;;;9.10;99.90;;;;;;5050076;28;25114;-68
2021/10/18 06:45:38;;;;;;;38.65;25.00;;;9.20;99.90;;;;;;5057625;28;25111;-67
2021/10/18 06:48:04;;;;;;;39.67;24.63;;;9.20;99.90;;;;;;5037890;28;25060;-70
2021/10/18 06:50:31;;;;;;;33.78;24.27;;;9.20;99.90;;;;;;5034846;28;25050;-68
2021/10/18 06:52:57;;;;;;;38.13;24.77;;;9.20;99.90;;;;;;5052839;28;25096;-72
2021/10/18 06:55:26;;;;;;;41.95;26.33;;;9.20;99.90;;;;;;5040226;28;25129;-69
2021/10/18 06:57:53;;;;;;;39.70;25.25;;;9.10;99.90;;;;;;5042855;28;25120;-70
2021/10/18 07:00:18;;;;;;;36.70;25.45;;;9.20;99.90;;;;;;5051785;28;25070;-71
2021/10/18 07:02:44;;;;;;;42.75;25.42;;;9.20;99.90;;;;;;5045493;28;25072;-70
2021/10/18 07:05:09;;;;;;;43.90;25.60;;;9.30;99.90;;;;;;5045526;28;25121;-72
2021/10/18 07:07:37;;;;;;;42.33;27.33;;;9.30;99.90;;;;;;5046291;28;25103;-71
2021/10/18 07:10:04;;;;;;;35.35;24.85;;;9.30;99.90;;;;;;5046937;28;25136;-70
2021/10/18 07:12:31;;;;;;;37.17;24.75;;;9.30;99.90;;;;;;5046949;28;25085;-72
2021/10/18 07:14:58;;;;;;;38.83;24.67;;;9.30;99.90;;;;;;5037362;28;25153;-70
2021/10/18 07:17:26;;;;;;;35.80;25.48;;;9.30;99.90;;;;;;5043315;28;25086;-69
2021/10/18 07:19:52;;;;;;;38.00;25.27;;;9.40;99.90;;;;;;5028839;28;25103;-70
2021/10/18 07:22:20;;;;;;;35.55;24.50;;;9.40;99.90;;;;;;5045453;28;25107;-70
2021/10/18 07:24:46;;;;;;;40.10;26.42;;;9.50;99.90;;;;;;5045704;28;25043;-69
2021/10/18 07:27:12;;;;;;;38.72;25.15;;;9.50;99.90;;;;;;5032009;28;25179;-68
2021/10/18 07:29:38;;;;;;;37.00;25.25;;;9.50;99.90;;;;;;5066469;28;25081;-67
2021/10/18 07:32:05;;;;;;;36.45;25.20;;;9.60;99.90;;;;;;5040808;28;25057;-68
2021/10/18 07:34:31;;;;;;;37.60;24.48;;;9.80;99.90;;;;;;5054936;28;25085;-69
2021/10/18 07:36:57;;;;;;;36.30;24.77;;;9.80;99.90;;;;;;5054034;28;25130;-69
2021/10/18 07:39:24;;;;;;;36.40;24.63;;;9.70;99.90;;;;;;5046387;28;25079;-70
2021/10/18 07:41:55;;;;;;;34.38;23.92;;;9.70;99.90;;;;;;5037846;28;25102;-71
2021/10/18 07:44:24;;;;;;;42.63;25.70;;;9.80;99.90;;;;;;5047251;28;25062;-71
2021/10/18 07:46:55;;;;;;;35.55;24.15;;;9.80;99.90;;;;;;5046427;28;25063;-71
2021/10/18 07:49:21;;;;;;;35.13;25.27;;;9.90;99.90;;;;;;5049024;28;25048;-71
2021/10/18 07:51:47;;;;;;;35.65;25.52;;;9.90;99.90;;;;;;5060037;28;25062;-70
2021/10/18 07:54:13;;;;;;;37.75;24.55;;;9.90;99.90;;;;;;5066504;28;25063;-67
2021/10/18 07:56:38;;;;;;;33.92;24.50;;;10.00;99.90;;;;;;5036910;28;25156;-68
2021/10/18 07:59:04;;;;;;;41.10;25.30;;;10.00;99.90;;;;;;5044451;28;25083;-68
2021/10/18 08:01:31;;;;;;;38.28;25.13;;;10.00;99.90;;;;;;5049065;28;25096;-70
2021/10/18 08:03:56;;;;;;;35.28;24.10;;;9.90;99.90;;;;;;5047725;28;25149;-71
2021/10/18 08:06:22;;;;;;;33.85;24.75;;;9.90;99.90;;;;;;5027375;28;25077;-68
2021/10/18 08:08:51;;;;;;;33.60;24.20;;;10.00;99.90;;;;;;5045505;28;25145;-68
2021/10/18 08:11:17;;;;;;;39.40;25.45;;;10.00;99.90;;;;;;5045228;28;25156;-67
2021/10/18 08:13:42;;;;;;;40.20;25.30;;;10.00;99.90;;;;;;5045710;28;25066;-69
2021/10/18 08:16:08;;;;;;;35.63;23.52;;;10.00;99.90;;;;;;5027420;28;25129;-70
2021/10/18 08:18:34;;;;;;;36.53;25.80;;;10.00;99.90;;;;;;5045575;28;25072;-70
2021/10/18 08:21:00;;;;;;;38.20;24.42;;;10.20;99.90;;;;;;5045900;28;25087;-71
2021/10/18 08:23:26;;;;;;;36.55;24.60;;;10.20;99.90;;;;;;5045146;28;25104;-70
2021/10/18 08:25:51;;;;;;;34.30;23.52;;;10.30;99.90;;;;;;5026343;28;25071;-69
2021/10/18 08:28:17;;;;;;;35.10;23.35;;;10.30;99.90;;;;;;5042018;28;25088;-70
2021/10/18 08:30:43;;;;;;;35.33;24.65;;;10.30;99.90;;;;;;5023927;28;25061;-69
2021/10/18 08:33:09;;;;;;;37.38;24.10;;;10.40;99.90;;;;;;5049500;28;25061;-71
2021/10/18 08:35:35;;;;;;;37.58;24.52;;;10.40;99.90;;;;;;5038907;28;25074;-69
2021/10/18 08:38:36;;;;;;;34.35;24.27;;;10.40;99.90;;;;;;5053051;28;25092;-71
2021/10/18 08:41:26;;;;;;;36.17;24.35;;;10.30;99.90;;;;;;5048777;28;25147;-70
2021/10/18 08:46:36;;;;;;;39.22;24.35;;;10.30;99.90;;;;;;5049880;28;25063;-69
2021/10/18 08:49:02;;;;;;;40.10;25.85;;;10.40;99.90;;;;;;5038348;28;25072;-70
2021/10/18 08:51:28;;;;;;;38.63;25.08;;;10.40;99.90;;;;;;5027699;28;25122;-72
2021/10/18 08:53:54;;;;;;;35.67;24.05;;;10.40;99.90;;;;;;5049355;28;25087;-69
2021/10/18 08:56:21;;;;;;;31.67;22.23;;;10.60;99.90;;;;;;5043879;28;25084;-72
2021/10/18 08:58:47;;;;;;;35.25;23.60;;;10.90;99.90;;;;;;5033001;28;25063;-70
2021/10/18 09:01:13;;;;;;;27.92;20.95;;;11.20;99.90;;;;;;5054499;28;25097;-68
2021/10/18 09:03:39;;;;;;;36.13;23.65;;;11.50;99.90;;;;;;5052693;28;25100;-69
2021/10/18 09:06:21;;;;;;;37.78;24.10;;;11.50;99.90;;;;;;5035323;28;25093;-70
2021/10/18 09:08:56;;;;;;;34.67;23.80;;;11.50;99.90;;;;;;5045312;28;25054;-71
2021/10/18 09:11:24;;;;;;;30.83;22.58;;;11.30;99.90;;;;;;5049271;28;25166;-69
2021/10/18 09:13:53;;;;;;;32.08;22.50;;;11.10;99.90;;;;;;5050666;28;25069;-70
2021/10/18 09:16:27;;;;;;;30.27;22.27;;;11.20;99.90;;;;;;5037786;28;25067;-70
2021/10/18 09:18:59;;;;;;;32.33;22.75;;;11.30;99.90;;;;;;5046420;28;25065;-70
2021/10/18 09:21:39;;;;;;;35.60;23.27;;;11.30;99.90;;;;;;5050115;28;25104;-70
2021/10/18 09:24:07;;;;;;;31.73;21.33;;;11.30;99.90;;;;;;5056778;28;25175;-70
2021/10/18 09:26:33;;;;;;;32.30;23.00;;;11.50;99.90;;;;;;5053508;28;25118;-70
2021/10/18 09:29:14;;;;;;;33.20;21.52;;;11.60;99.90;;;;;;5029634;28;25050;-71
2021/10/18 09:31:42;;;;;;;29.02;22.42;;;11.70;99.90;;;;;;5037122;28;25069;-68
2021/10/18 09:34:17;;;;;;;30.67;21.40;;;11.70;99.90;;;;;;5040599;28;25082;-68
2021/10/18 09:36:44;;;;;;;33.30;21.40;;;11.60;99.90;;;;;;5046453;28;25099;-69
2021/10/18 09:39:24;;;;;;;32.25;21.92;;;11.60;99.90;;;;;;5051648;28;25082;-69
2021/10/18 09:41:58;;;;;;;27.65;21.30;;;11.70;99.90;;;;;;5045426;28;25083;-68
2021/10/18 09:45:24;;;;;;;31.23;22.15;;;11.70;99.90;;;;;;5030816;28;25155;-69
2021/10/18 10:51:39;;;;;;;24.95;17.88;;;13.40;99.90;;;;;;4975615;28;25058;-72
2021/10/18 10:54:06;;;;;;;25.15;17.88;;;13.50;99.90;;;;;;4993172;28;25095;-68
2021/10/18 10:56:45;;;;;;;22.63;18.08;;;13.50;99.90;;;;;;5044266;28;25101;-73
2021/10/18 10:59:19;;;;;;;27.15;17.02;;;13.60;99.90;;;;;;5046308;28;25056;-72
2021/10/18 11:01:50;;;;;;;24.85;16.02;;;13.60;99.90;;;;;;5041352;28;25075;-68
2021/10/18 11:04:31;;;;;;;21.67;16.55;;;13.60;99.90;;;;;;5042112;28;25054;-69
2021/10/18 11:07:10;;;;;;;27.00;18.48;;;13.70;99.90;;;;;;5033767;28;25071;-69
2021/10/18 11:09:37;;;;;;;26.77;16.88;;;13.60;99.90;;;;;;5033123;28;25068;-69
2021/10/18 11:12:05;;;;;;;24.20;16.27;;;13.60;99.90;;;;;;5048520;28;25083;-69
2021/10/18 11:14:32;;;;;;;28.33;16.67;;;13.50;99.90;;;;;;5054375;28;25063;-69
2021/10/18 11:16:58;;;;;;;20.13;16.75;;;13.60;99.90;;;;;;5042832;28;25099;-69
2021/10/18 11:19:23;;;;;;;21.98;16.15;;;13.70;99.90;;;;;;5047718;28;25072;-69
2021/10/18 11:22:00;;;;;;;23.50;15.80;;;13.80;99.90;;;;;;5047587;28;25139;-68
2021/10/18 11:24:46;;;;;;;24.40;16.55;;;13.80;99.90;;;;;;5044406;28;25062;-71
2021/10/18 11:27:12;;;;;;;21.77;15.85;;;13.60;99.90;;;;;;5022556;28;25132;-71
2021/10/18 11:29:37;;;;;;;22.25;15.77;;;13.50;99.90;;;;;;5045637;28;25134;-71
2021/10/18 11:32:10;;;;;;;22.05;16.35;;;13.50;99.90;;;;;;5048743;28;25063;-70
2021/10/18 11:34:36;;;;;;;22.00;16.90;;;13.50;99.90;;;;;;5044822;28;25109;-70
2021/10/18 11:37:02;;;;;;;23.20;15.68;;;13.50;99.90;;;;;;5023323;28;25066;-69
2021/10/18 11:39:29;;;;;;;20.85;15.50;;;13.60;99.90;;;;;;5048405;28;25122;-68
2021/10/18 11:41:58;;;;;;;19.95;15.05;;;13.50;99.90;;;;;;5032106;28;25057;-71
2021/10/18 11:44:47;;;;;;;21.48;15.40;;;13.50;99.90;;;;;;5028515;28;25058;-70
2021/10/18 11:47:35;;;;;;;20.27;14.73;;;13.70;99.90;;;;;;5046475;28;25064;-71
2021/10/18 11:50:07;;;;;;;25.67;16.33;;;13.90;99.90;;;;;;5050192;28;25136;-70
2021/10/18 11:52:34;;;;;;;24.02;16.17;;;14.00;99.90;;;;;;5048385;28;25115;-71
2021/10/18 11:54:59;;;;;;;23.17;16.27;;;14.00;99.90;;;;;;5054358;28;25069;-71
2021/10/18 11:57:28;;;;;;;21.30;15.43;;;13.90;99.90;;;;;;5049847;28;25052;-69
2021/10/18 11:59:54;;;;;;;24.08;16.17;;;14.00;99.90;;;;;;5026180;28;25071;-72
2021/10/18 12:02:21;;;;;;;26.00;14.82;;;14.00;99.90;;;;;;5054104;28;25068;-67
2021/10/18 12:04:57;;;;;;;23.15;15.52;;;13.90;99.90;;;;;;5061571;28;25070;-72
2021/10/18 12:07:46;;;;;;;20.00;14.60;;;14.00;99.90;;;;;;5061211;28;25056;-69
2021/10/18 12:10:14;;;;;;;25.00;16.33;;;14.00;99.90;;;;;;5040119;28;25095;-67
2021/10/18 12:12:58;;;;;;;22.48;15.77;;;14.00;99.90;;;;;;5050996;28;25052;-70
2021/10/18 12:15:23;;;;;;;18.90;15.55;;;14.10;99.90;;;;;;5054500;28;25061;-70
2021/10/18 12:17:49;;;;;;;21.25;15.45;;;14.10;99.90;;;;;;5045570;28;25083;-69
2021/10/18 12:20:15;;;;;;;20.35;14.75;;;14.00;99.90;;;;;;5054714;28;25151;-70
2021/10/18 12:23:05;;;;;;;18.80;15.15;;;14.10;99.90;;;;;;5054679;28;25109;-70
2021/10/18 12:25:32;;;;;;;24.30;14.98;;;14.30;99.90;;;;;;5045001;28;25055;-70
2021/10/18 12:28:00;;;;;;;25.08;14.43;;;14.40;99.90;;;;;;5030810;28;25103;-68
2021/10/18 12:30:41;;;;;;;17.77;13.45;;;14.60;99.90;;;;;;5045575;28;25048;-72
2021/10/18 12:33:14;;;;;;;19.73;14.77;;;14.60;99.90;;;;;;5051779;28;25149;-70
2021/10/18 12:35:41;;;;;;;18.85;13.98;;;14.60;99.90;;;;;;5038723;28;25150;-70
2021/10/18 12:38:11;;;;;;;21.40;14.10;;;14.60;99.90;;;;;;5043688;28;25067;-69
2021/10/18 12:40:37;;;;;;;18.38;13.73;;;14.70;99.90;;;;;;5026041;28;25155;-70
2021/10/18 12:43:03;;;;;;;21.17;14.02;;;14.70;99.90;;;;;;5023938;28;25073;-71
2021/10/18 12:45:36;;;;;;;21.50;14.45;;;14.80;99.90;;;;;;5043464;28;25072;-71
2021/10/18 12:48:02;;;;;;;20.73;13.88;;;14.90;99.90;;;;;;5023141;28;25054;-71
2021/10/18 12:50:30;;;;;;;19.33;13.18;;;15.00;99.90;;;;;;5039921;28;25069;-69
2021/10/18 12:53:00;;;;;;;21.17;14.60;;;14.90;99.90;;;;;;5041077;28;25127;-70
2021/10/18 12:55:30;;;;;;;15.43;13.18;;;14.90;99.90;;;;;;5038482;28;25061;-71
2021/10/18 12:57:58;;;;;;;19.95;14.15;;;14.90;99.90;;;;;;5034312;28;25074;-70
2021/10/18 13:00:35;;;;;;;19.08;14.32;;;14.90;99.90;;;;;;5042040;28;25088;-69
2021/10/18 13:03:06;;;;;;;18.30;13.75;;;14.80;99.90;;;;;;5043894;28;25077;-69
2021/10/18 13:05:37;;;;;;;21.20;13.70;;;15.00;99.90;;;;;;5045668;28;25109;-70
2021/10/18 13:08:02;;;;;;;18.65;13.52;;;14.90;99.90;;;;;;5044590;28;25074;-69
2021/10/18 13:10:33;;;;;;;19.10;12.75;;;14.90;99.90;;;;;;5043930;28;25066;-71
2021/10/18 13:13:02;;;;;;;16.83;12.80;;;15.00;99.90;;;;;;5050604;28;25111;-71
2021/10/18 13:15:28;;;;;;;18.60;13.63;;;15.00;99.90;;;;;;5054026;28;25070;-68
2021/10/18 13:17:53;;;;;;;24.17;13.05;;;15.10;99.90;;;;;;5043627;28;25077;-71
2021/10/18 13:20:23;;;;;;;20.33;14.80;;;15.20;99.90;;;;;;5044702;28;25086;-70
2021/10/18 13:22:49;;;;;;;22.40;13.35;;;15.10;99.90;;;;;;5026772;28;25094;-69
2021/10/18 13:25:15;;;;;;;17.05;13.20;;;15.10;99.90;;;;;;5049390;28;25092;-72
2021/10/18 13:27:41;;;;;;;19.00;13.05;;;15.10;99.90;;;;;;5047169;28;25135;-72
2021/10/18 13:30:09;;;;;;;18.58;13.00;;;15.20;99.90;;;;;;5029759;28;25075;-70
2021/10/18 13:32:36;;;;;;;19.33;12.35;;;15.30;99.90;;;;;;5048994;28;25073;-69
2021/10/18 13:35:05;;;;;;;17.65;12.43;;;15.20;99.90;;;;;;5034118;28;25092;-68
2021/10/18 13:37:31;;;;;;;16.02;11.30;;;15.10;99.90;;;;;;5054312;28;25068;-69
2021/10/18 13:39:57;;;;;;;19.33;11.82;;;15.20;99.90;;;;;;5030287;28;25095;-70